sensor_id;sensor_type;location;lat;lon;timestamp;P1;durP1;ratioP1;P2;durP2;ratioP2
23232;SDS011;11785;49.500;8.288;2024-03-08T00:00:26;25.70;;;15.23;;
23232;SDS011;11785;49.500;8.288;2024-03-08T00:02:52;28.40;;;15.80;;
23232;SDS011;11785;49.500;8.288;2024-03-08T00:05:19;29.55;;;15.95;;
23232;SDS011;11785;49.500;8.288;2024-03-08T00:07:44;25.92;;;14.85;;
23232;SDS011;11785;49.500;8.288;2024-03-08T00:10:10;32.13;;;16.08;;
23232;SDS011;11785;49.500;8.288;2024-03-08T00:12:41;27.33;;;15.98;;
23232;SDS011;11785;49.500;8.288;2024-03-08T00:15:08;29.58;;;15.77;;
23232;SDS011;11785;49.500;8.288;2024-03-08T00:17:35;28.08;;;15.68;;
23232;SDS011;11785;49.500;8.288;2024-03-08T00:20:01;26.65;;;15.10;;
23232;SDS011;11785;49.500;8.288;2024-03-08T00:22:33;32.63;;;16.00;;
23232;SDS011;11785;49.500;8.288;2024-03-08T00:24:59;26.58;;;15.60;;
23232;SDS011;11785;49.500;8.288;2024-03-08T00:27:24;28.48;;;15.75;;
23232;SDS011;11785;49.500;8.288;2024-03-08T00:29:50;26.73;;;15.80;;
23232;SDS011;11785;49.500;8.288;2024-03-08T00:32:15;29.10;;;16.60;;
23232;SDS011;11785;49.500;8.288;2024-03-08T00:34:42;26.95;;;15.63;;
23232;SDS011;11785;49.500;8.288;2024-03-08T00:37:07;31.05;;;16.48;;
23232;SDS011;11785;49.500;8.288;2024-03-08T00:39:33;30.63;;;16.27;;
23232;SDS011;11785;49.500;8.288;2024-03-08T00:41:59;27.55;;;15.63;;
23232;SDS011;11785;49.500;8.288;2024-03-08T00:44:24;25.85;;;15.75;;
23232;SDS011;11785;49.500;8.288;2024-03-08T00:46:50;29.52;;;16.52;;
23232;SDS011;11785;49.500;8.288;2024-03-08T00:49:16;29.15;;;16.25;;
23232;SDS011;11785;49.500;8.288;2024-03-08T00:51:41;28.00;;;15.93;;
23232;SDS011;11785;49.500;8.288;2024-03-08T00:54:08;32.47;;;17.30;;
23232;SDS011;11785;49.500;8.288;2024-03-08T00:56:34;32.83;;;16.58;;
23232;SDS011;11785;49.500;8.288;2024-03-08T00:59:00;27.05;;;15.85;;
23232;SDS011;11785;49.500;8.288;2024-03-08T01:01:27;28.63;;;16.13;;
23232;SDS011;11785;49.500;8.288;2024-03-08T01:03:53;28.88;;;16.60;;
23232;SDS011;11785;49.500;8.288;2024-03-08T01:06:18;31.05;;;17.45;;
23232;SDS011;11785;49.500;8.288;2024-03-08T01:08:44;28.85;;;16.08;;
23232;SDS011;11785;49.500;8.288;2024-03-08T01:11:12;31.40;;;16.77;;
23232;SDS011;11785;49.500;8.288;2024-03-08T01:13:38;33.42;;;17.50;;
23232;SDS011;11785;49.500;8.288;2024-03-08T01:16:04;32.15;;;16.55;;
23232;SDS011;11785;49.500;8.288;2024-03-08T01:18:30;30.10;;;16.17;;
23232;SDS011;11785;49.500;8.288;2024-03-08T01:20:57;32.17;;;16.98;;
23232;SDS011;11785;49.500;8.288;2024-03-08T01:23:22;28.75;;;16.40;;
23232;SDS011;11785;49.500;8.288;2024-03-08T01:25:48;30.58;;;17.33;;
23232;SDS011;11785;49.500;8.288;2024-03-08T01:28:17;31.02;;;16.50;;
23232;SDS011;11785;49.500;8.288;2024-03-08T01:30:42;30.17;;;17.02;;
23232;SDS011;11785;49.500;8.288;2024-03-08T01:33:08;30.20;;;16.48;;
23232;SDS011;11785;49.500;8.288;2024-03-08T01:35:33;28.35;;;16.95;;
23232;SDS011;11785;49.500;8.288;2024-03-08T01:37:59;29.00;;;15.85;;
23232;SDS011;11785;49.500;8.288;2024-03-08T01:40:24;30.27;;;16.40;;
23232;SDS011;11785;49.500;8.288;2024-03-08T01:42:50;27.58;;;15.80;;
23232;SDS011;11785;49.500;8.288;2024-03-08T01:45:16;30.10;;;15.70;;
23232;SDS011;11785;49.500;8.288;2024-03-08T01:47:41;30.48;;;17.13;;
23232;SDS011;11785;49.500;8.288;2024-03-08T01:50:07;34.17;;;17.42;;
23232;SDS011;11785;49.500;8.288;2024-03-08T01:52:33;30.48;;;16.30;;
23232;SDS011;11785;49.500;8.288;2024-03-08T01:54:59;30.52;;;16.45;;
23232;SDS011;11785;49.500;8.288;2024-03-08T01:57:27;25.92;;;15.10;;
23232;SDS011;11785;49.500;8.288;2024-03-08T01:59:53;31.30;;;16.13;;
23232;SDS011;11785;49.500;8.288;2024-03-08T02:02:20;27.92;;;15.60;;
23232;SDS011;11785;49.500;8.288;2024-03-08T02:04:47;27.58;;;16.17;;
23232;SDS011;11785;49.500;8.288;2024-03-08T02:07:13;29.65;;;16.40;;
23232;SDS011;11785;49.500;8.288;2024-03-08T02:09:39;26.10;;;15.70;;
23232;SDS011;11785;49.500;8.288;2024-03-08T02:12:05;28.88;;;16.30;;
23232;SDS011;11785;49.500;8.288;2024-03-08T02:14:32;32.15;;;16.15;;
23232;SDS011;11785;49.500;8.288;2024-03-08T02:17:01;29.00;;;15.77;;
23232;SDS011;11785;49.500;8.288;2024-03-08T02:19:27;30.65;;;16.13;;
23232;SDS011;11785;49.500;8.288;2024-03-08T02:21:53;29.60;;;16.65;;
23232;SDS011;11785;49.500;8.288;2024-03-08T02:24:19;28.92;;;15.30;;
23232;SDS011;11785;49.500;8.288;2024-03-08T02:26:44;30.58;;;16.73;;
23232;SDS011;11785;49.500;8.288;2024-03-08T02:29:11;29.63;;;16.05;;
23232;SDS011;11785;49.500;8.288;2024-03-08T02:31:36;30.65;;;16.90;;
23232;SDS011;11785;49.500;8.288;2024-03-08T02:34:04;27.15;;;15.30;;
23232;SDS011;11785;49.500;8.288;2024-03-08T02:36:30;33.20;;;16.70;;
23232;SDS011;11785;49.500;8.288;2024-03-08T02:38:59;29.52;;;16.25;;
23232;SDS011;11785;49.500;8.288;2024-03-08T02:41:27;27.38;;;15.45;;
23232;SDS011;11785;49.500;8.288;2024-03-08T02:43:52;31.58;;;16.42;;
23232;SDS011;11785;49.500;8.288;2024-03-08T02:46:18;29.58;;;15.48;;
23232;SDS011;11785;49.500;8.288;2024-03-08T02:48:43;27.92;;;15.77;;
23232;SDS011;11785;49.500;8.288;2024-03-08T02:51:09;29.52;;;16.30;;
23232;SDS011;11785;49.500;8.288;2024-03-08T02:53:35;27.70;;;16.42;;
23232;SDS011;11785;49.500;8.288;2024-03-08T02:56:01;32.60;;;16.73;;
23232;SDS011;11785;49.500;8.288;2024-03-08T02:58:26;27.02;;;15.82;;
23232;SDS011;11785;49.500;8.288;2024-03-08T03:00:52;29.95;;;16.45;;
23232;SDS011;11785;49.500;8.288;2024-03-08T03:03:17;27.75;;;15.73;;
23232;SDS011;11785;49.500;8.288;2024-03-08T03:05:43;28.42;;;15.95;;
23232;SDS011;11785;49.500;8.288;2024-03-08T03:08:08;33.28;;;17.25;;
23232;SDS011;11785;49.500;8.288;2024-03-08T03:10:35;32.40;;;16.00;;
23232;SDS011;11785;49.500;8.288;2024-03-08T03:13:01;28.63;;;15.60;;
23232;SDS011;11785;49.500;8.288;2024-03-08T03:15:26;29.38;;;15.43;;
23232;SDS011;11785;49.500;8.288;2024-03-08T03:17:52;31.88;;;15.15;;
23232;SDS011;11785;49.500;8.288;2024-03-08T03:20:17;28.95;;;15.70;;
23232;SDS011;11785;49.500;8.288;2024-03-08T03:22:51;27.67;;;15.18;;
23232;SDS011;11785;49.500;8.288;2024-03-08T03:25:20;28.40;;;16.05;;
23232;SDS011;11785;49.500;8.288;2024-03-08T03:27:54;26.80;;;14.98;;
23232;SDS011;11785;49.500;8.288;2024-03-08T03:30:23;27.15;;;14.85;;
23232;SDS011;11785;49.500;8.288;2024-03-08T03:32:51;28.45;;;15.45;;
23232;SDS011;11785;49.500;8.288;2024-03-08T03:35:20;29.15;;;15.00;;
23232;SDS011;11785;49.500;8.288;2024-03-08T03:37:47;26.27;;;15.07;;
23232;SDS011;11785;49.500;8.288;2024-03-08T03:40:31;27.85;;;15.95;;
23232;SDS011;11785;49.500;8.288;2024-03-08T03:43:01;29.80;;;15.65;;
23232;SDS011;11785;49.500;8.288;2024-03-08T03:45:30;30.85;;;14.50;;
23232;SDS011;11785;49.500;8.288;2024-03-08T03:47:59;27.85;;;14.75;;
23232;SDS011;11785;49.500;8.288;2024-03-08T03:50:34;29.85;;;14.80;;
23232;SDS011;11785;49.500;8.288;2024-03-08T03:53:00;24.55;;;14.70;;
23232;SDS011;11785;49.500;8.288;2024-03-08T03:55:27;27.50;;;13.95;;
23232;SDS011;11785;49.500;8.288;2024-03-08T03:57:53;26.77;;;15.85;;
23232;SDS011;11785;49.500;8.288;2024-03-08T04:00:19;25.42;;;14.25;;
23232;SDS011;11785;49.500;8.288;2024-03-08T04:02:45;28.75;;;15.05;;
23232;SDS011;11785;49.500;8.288;2024-03-08T04:05:11;28.98;;;15.40;;
23232;SDS011;11785;49.500;8.288;2024-03-08T04:07:38;29.42;;;14.57;;
23232;SDS011;11785;49.500;8.288;2024-03-08T04:10:04;25.50;;;14.60;;
23232;SDS011;11785;49.500;8.288;2024-03-08T04:12:34;24.92;;;14.68;;
23232;SDS011;11785;49.500;8.288;2024-03-08T04:14:59;29.55;;;15.52;;
23232;SDS011;11785;49.500;8.288;2024-03-08T04:17:25;26.15;;;14.25;;
23232;SDS011;11785;49.500;8.288;2024-03-08T04:19:51;28.13;;;15.43;;
23232;SDS011;11785;49.500;8.288;2024-03-08T04:22:17;30.67;;;14.98;;
23232;SDS011;11785;49.500;8.288;2024-03-08T04:24:43;29.33;;;14.98;;
23232;SDS011;11785;49.500;8.288;2024-03-08T04:27:09;31.02;;;16.20;;
23232;SDS011;11785;49.500;8.288;2024-03-08T04:29:35;27.67;;;15.13;;
23232;SDS011;11785;49.500;8.288;2024-03-08T04:32:02;27.33;;;15.40;;
23232;SDS011;11785;49.500;8.288;2024-03-08T04:34:29;30.60;;;15.35;;
23232;SDS011;11785;49.500;8.288;2024-03-08T04:36:58;29.33;;;15.75;;
23232;SDS011;11785;49.500;8.288;2024-03-08T04:39:24;28.40;;;15.10;;
23232;SDS011;11785;49.500;8.288;2024-03-08T04:41:53;34.20;;;16.02;;
23232;SDS011;11785;49.500;8.288;2024-03-08T04:44:21;30.25;;;16.13;;
23232;SDS011;11785;49.500;8.288;2024-03-08T04:46:47;27.13;;;15.77;;
23232;SDS011;11785;49.500;8.288;2024-03-08T04:49:13;31.13;;;16.23;;
23232;SDS011;11785;49.500;8.288;2024-03-08T04:51:38;27.73;;;16.25;;
23232;SDS011;11785;49.500;8.288;2024-03-08T04:54:05;30.38;;;15.35;;
23232;SDS011;11785;49.500;8.288;2024-03-08T04:56:30;30.42;;;16.35;;
23232;SDS011;11785;49.500;8.288;2024-03-08T04:58:56;33.22;;;15.68;;
23232;SDS011;11785;49.500;8.288;2024-03-08T05:01:22;31.60;;;16.77;;
23232;SDS011;11785;49.500;8.288;2024-03-08T05:03:47;29.20;;;16.00;;
23232;SDS011;11785;49.500;8.288;2024-03-08T05:06:15;29.77;;;16.40;;
23232;SDS011;11785;49.500;8.288;2024-03-08T05:08:41;29.23;;;15.80;;
23232;SDS011;11785;49.500;8.288;2024-03-08T05:11:06;29.38;;;15.75;;
23232;SDS011;11785;49.500;8.288;2024-03-08T05:13:32;30.65;;;15.45;;
23232;SDS011;11785;49.500;8.288;2024-03-08T05:15:59;31.25;;;15.70;;
23232;SDS011;11785;49.500;8.288;2024-03-08T05:18:24;28.33;;;15.10;;
23232;SDS011;11785;49.500;8.288;2024-03-08T05:20:50;29.27;;;15.80;;
23232;SDS011;11785;49.500;8.288;2024-03-08T05:23:16;26.35;;;15.55;;
23232;SDS011;11785;49.500;8.288;2024-03-08T05:25:44;26.27;;;15.52;;
23232;SDS011;11785;49.500;8.288;2024-03-08T05:28:11;29.88;;;16.02;;
23232;SDS011;11785;49.500;8.288;2024-03-08T05:30:37;30.80;;;16.15;;
23232;SDS011;11785;49.500;8.288;2024-03-08T05:33:03;33.42;;;16.55;;
23232;SDS011;11785;49.500;8.288;2024-03-08T05:35:29;30.67;;;15.18;;
23232;SDS011;11785;49.500;8.288;2024-03-08T05:37:55;28.77;;;15.48;;
23232;SDS011;11785;49.500;8.288;2024-03-08T05:40:21;31.40;;;15.95;;
23232;SDS011;11785;49.500;8.288;2024-03-08T05:42:46;32.80;;;17.00;;
23232;SDS011;11785;49.500;8.288;2024-03-08T05:45:12;33.13;;;16.95;;
23232;SDS011;11785;49.500;8.288;2024-03-08T05:47:38;31.55;;;16.25;;
23232;SDS011;11785;49.500;8.288;2024-03-08T05:50:04;32.20;;;16.25;;
23232;SDS011;11785;49.500;8.288;2024-03-08T05:52:32;34.40;;;16.40;;
23232;SDS011;11785;49.500;8.288;2024-03-08T05:54:58;34.15;;;17.40;;
23232;SDS011;11785;49.500;8.288;2024-03-08T05:57:24;33.38;;;17.25;;
23232;SDS011;11785;49.500;8.288;2024-03-08T05:59:49;30.02;;;16.95;;
23232;SDS011;11785;49.500;8.288;2024-03-08T06:02:15;32.83;;;16.38;;
23232;SDS011;11785;49.500;8.288;2024-03-08T06:04:44;31.95;;;16.13;;
23232;SDS011;11785;49.500;8.288;2024-03-08T06:07:11;33.50;;;17.52;;
23232;SDS011;11785;49.500;8.288;2024-03-08T06:09:37;31.63;;;16.25;;
23232;SDS011;11785;49.500;8.288;2024-03-08T06:12:04;34.08;;;16.88;;
23232;SDS011;11785;49.500;8.288;2024-03-08T06:14:31;33.75;;;16.40;;
23232;SDS011;11785;49.500;8.288;2024-03-08T06:16:57;34.30;;;16.95;;
23232;SDS011;11785;49.500;8.288;2024-03-08T06:19:22;28.27;;;15.77;;
23232;SDS011;11785;49.500;8.288;2024-03-08T06:21:48;35.47;;;17.35;;
23232;SDS011;11785;49.500;8.288;2024-03-08T06:24:14;34.45;;;17.00;;
23232;SDS011;11785;49.500;8.288;2024-03-08T06:26:40;33.92;;;16.40;;
23232;SDS011;11785;49.500;8.288;2024-03-08T06:29:05;32.28;;;16.65;;
23232;SDS011;11785;49.500;8.288;2024-03-08T06:31:34;31.38;;;16.60;;
23232;SDS011;11785;49.500;8.288;2024-03-08T06:33:59;33.92;;;17.83;;
23232;SDS011;11785;49.500;8.288;2024-03-08T06:36:25;35.90;;;16.98;;
23232;SDS011;11785;49.500;8.288;2024-03-08T06:38:50;34.22;;;17.23;;
23232;SDS011;11785;49.500;8.288;2024-03-08T06:41:16;32.55;;;16.95;;
23232;SDS011;11785;49.500;8.288;2024-03-08T06:43:42;31.48;;;16.70;;
23232;SDS011;11785;49.500;8.288;2024-03-08T06:46:08;34.22;;;17.65;;
23232;SDS011;11785;49.500;8.288;2024-03-08T06:48:34;34.92;;;17.80;;
23232;SDS011;11785;49.500;8.288;2024-03-08T06:51:02;35.60;;;17.00;;
23232;SDS011;11785;49.500;8.288;2024-03-08T06:53:28;33.42;;;17.58;;
23232;SDS011;11785;49.500;8.288;2024-03-08T06:55:53;35.80;;;18.27;;
23232;SDS011;11785;49.500;8.288;2024-03-08T06:58:19;33.42;;;16.92;;
23232;SDS011;11785;49.500;8.288;2024-03-08T07:00:45;29.50;;;17.73;;
23232;SDS011;11785;49.500;8.288;2024-03-08T07:03:11;34.10;;;17.65;;
23232;SDS011;11785;49.500;8.288;2024-03-08T07:05:42;38.55;;;18.85;;
23232;SDS011;11785;49.500;8.288;2024-03-08T07:08:07;36.03;;;18.45;;
23232;SDS011;11785;49.500;8.288;2024-03-08T07:10:33;34.42;;;17.67;;
23232;SDS011;11785;49.500;8.288;2024-03-08T07:12:59;30.63;;;16.48;;
23232;SDS011;11785;49.500;8.288;2024-03-08T07:15:27;33.25;;;17.23;;
23232;SDS011;11785;49.500;8.288;2024-03-08T07:17:53;34.10;;;17.90;;
23232;SDS011;11785;49.500;8.288;2024-03-08T07:20:19;30.38;;;17.45;;
23232;SDS011;11785;49.500;8.288;2024-03-08T07:22:45;29.73;;;16.35;;
23232;SDS011;11785;49.500;8.288;2024-03-08T07:25:17;30.48;;;17.33;;
23232;SDS011;11785;49.500;8.288;2024-03-08T07:27:55;30.25;;;16.40;;
23232;SDS011;11785;49.500;8.288;2024-03-08T07:30:21;31.10;;;16.30;;
23232;SDS011;11785;49.500;8.288;2024-03-08T07:33:07;29.60;;;16.15;;
23232;SDS011;11785;49.500;8.288;2024-03-08T07:35:33;26.73;;;15.52;;
23232;SDS011;11785;49.500;8.288;2024-03-08T07:38:02;29.70;;;16.85;;
23232;SDS011;11785;49.500;8.288;2024-03-08T07:40:32;35.40;;;16.75;;
23232;SDS011;11785;49.500;8.288;2024-03-08T07:43:06;28.27;;;15.77;;
23232;SDS011;11785;49.500;8.288;2024-03-08T07:45:32;29.38;;;16.55;;
23232;SDS011;11785;49.500;8.288;2024-03-08T07:47:59;32.17;;;16.05;;
23232;SDS011;11785;49.500;8.288;2024-03-08T07:50:24;30.83;;;15.80;;
23232;SDS011;11785;49.500;8.288;2024-03-08T07:52:50;28.63;;;16.02;;
23232;SDS011;11785;49.500;8.288;2024-03-08T07:55:16;24.65;;;14.50;;
23232;SDS011;11785;49.500;8.288;2024-03-08T07:57:41;27.65;;;14.85;;
23232;SDS011;11785;49.500;8.288;2024-03-08T08:00:07;27.33;;;15.38;;
23232;SDS011;11785;49.500;8.288;2024-03-08T08:02:34;31.77;;;15.60;;
23232;SDS011;11785;49.500;8.288;2024-03-08T08:05:00;27.67;;;15.25;;
23232;SDS011;11785;49.500;8.288;2024-03-08T08:07:26;26.67;;;14.68;;
23232;SDS011;11785;49.500;8.288;2024-03-08T08:09:52;30.13;;;15.98;;
23232;SDS011;11785;49.500;8.288;2024-03-08T08:12:18;27.80;;;15.30;;
23232;SDS011;11785;49.500;8.288;2024-03-08T08:14:43;28.45;;;15.38;;
23232;SDS011;11785;49.500;8.288;2024-03-08T08:17:09;26.25;;;15.43;;
23232;SDS011;11785;49.500;8.288;2024-03-08T08:19:35;27.80;;;15.30;;
23232;SDS011;11785;49.500;8.288;2024-03-08T08:22:01;27.38;;;15.93;;
23232;SDS011;11785;49.500;8.288;2024-03-08T08:24:31;27.83;;;14.85;;
23232;SDS011;11785;49.500;8.288;2024-03-08T08:26:57;26.30;;;15.13;;
23232;SDS011;11785;49.500;8.288;2024-03-08T08:29:22;25.73;;;14.82;;
23232;SDS011;11785;49.500;8.288;2024-03-08T08:31:48;26.52;;;15.43;;
23232;SDS011;11785;49.500;8.288;2024-03-08T08:34:14;24.33;;;14.30;;
23232;SDS011;11785;49.500;8.288;2024-03-08T08:36:41;23.83;;;14.18;;
23232;SDS011;11785;49.500;8.288;2024-03-08T08:39:07;21.90;;;13.68;;
23232;SDS011;11785;49.500;8.288;2024-03-08T08:41:38;24.02;;;14.38;;
23232;SDS011;11785;49.500;8.288;2024-03-08T08:44:04;29.73;;;16.42;;
23232;SDS011;11785;49.500;8.288;2024-03-08T08:46:34;25.60;;;15.07;;
23232;SDS011;11785;49.500;8.288;2024-03-08T08:49:04;26.63;;;15.15;;
23232;SDS011;11785;49.500;8.288;2024-03-08T08:51:31;31.67;;;16.48;;
23232;SDS011;11785;49.500;8.288;2024-03-08T08:53:58;28.42;;;15.65;;
23232;SDS011;11785;49.500;8.288;2024-03-08T08:56:24;29.95;;;14.90;;
23232;SDS011;11785;49.500;8.288;2024-03-08T08:58:50;27.25;;;14.48;;
23232;SDS011;11785;49.500;8.288;2024-03-08T09:01:18;26.88;;;14.93;;
23232;SDS011;11785;49.500;8.288;2024-03-08T09:03:44;25.77;;;14.75;;
23232;SDS011;11785;49.500;8.288;2024-03-08T09:06:11;24.17;;;14.80;;
23232;SDS011;11785;49.500;8.288;2024-03-08T09:08:38;25.58;;;15.10;;
23232;SDS011;11785;49.500;8.288;2024-03-08T09:11:04;27.27;;;14.98;;
23232;SDS011;11785;49.500;8.288;2024-03-08T09:13:30;27.50;;;15.90;;
23232;SDS011;11785;49.500;8.288;2024-03-08T09:15:56;26.17;;;15.65;;
23232;SDS011;11785;49.500;8.288;2024-03-08T09:18:21;26.58;;;14.68;;
23232;SDS011;11785;49.500;8.288;2024-03-08T09:20:49;25.55;;;13.80;;
23232;SDS011;11785;49.500;8.288;2024-03-08T09:23:14;27.08;;;15.18;;
23232;SDS011;11785;49.500;8.288;2024-03-08T09:25:41;23.90;;;15.07;;
23232;SDS011;11785;49.500;8.288;2024-03-08T09:28:08;25.55;;;15.13;;
23232;SDS011;11785;49.500;8.288;2024-03-08T09:30:34;27.25;;;15.18;;
23232;SDS011;11785;49.500;8.288;2024-03-08T09:33:00;26.58;;;15.35;;
23232;SDS011;11785;49.500;8.288;2024-03-08T09:35:26;26.02;;;15.30;;
23232;SDS011;11785;49.500;8.288;2024-03-08T09:37:51;28.25;;;14.68;;
23232;SDS011;11785;49.500;8.288;2024-03-08T09:40:18;24.05;;;14.57;;
23232;SDS011;11785;49.500;8.288;2024-03-08T09:42:45;23.02;;;14.55;;
23232;SDS011;11785;49.500;8.288;2024-03-08T09:45:12;25.55;;;15.70;;
23232;SDS011;11785;49.500;8.288;2024-03-08T09:47:44;26.23;;;15.10;;
23232;SDS011;11785;49.500;8.288;2024-03-08T09:50:10;26.92;;;15.38;;
23232;SDS011;11785;49.500;8.288;2024-03-08T09:52:41;26.38;;;14.70;;
23232;SDS011;11785;49.500;8.288;2024-03-08T09:55:08;26.48;;;15.35;;
23232;SDS011;11785;49.500;8.288;2024-03-08T09:57:37;27.23;;;15.43;;
23232;SDS011;11785;49.500;8.288;2024-03-08T10:00:03;26.98;;;15.85;;
23232;SDS011;11785;49.500;8.288;2024-03-08T10:02:45;26.88;;;16.25;;
23232;SDS011;11785;49.500;8.288;2024-03-08T10:05:12;24.10;;;14.73;;
23232;SDS011;11785;49.500;8.288;2024-03-08T10:07:38;23.25;;;14.75;;
23232;SDS011;11785;49.500;8.288;2024-03-08T10:10:04;23.80;;;15.10;;
23232;SDS011;11785;49.500;8.288;2024-03-08T10:12:30;25.00;;;14.93;;
23232;SDS011;11785;49.500;8.288;2024-03-08T10:14:58;24.08;;;15.02;;
23232;SDS011;11785;49.500;8.288;2024-03-08T10:17:23;23.63;;;14.90;;
23232;SDS011;11785;49.500;8.288;2024-03-08T10:19:50;24.50;;;15.45;;
23232;SDS011;11785;49.500;8.288;2024-03-08T10:22:17;26.15;;;16.25;;
23232;SDS011;11785;49.500;8.288;2024-03-08T10:24:44;26.15;;;15.80;;
23232;SDS011;11785;49.500;8.288;2024-03-08T10:27:13;29.65;;;17.00;;
23232;SDS011;11785;49.500;8.288;2024-03-08T10:29:41;25.08;;;15.85;;
23232;SDS011;11785;49.500;8.288;2024-03-08T10:32:09;24.58;;;15.05;;
23232;SDS011;11785;49.500;8.288;2024-03-08T10:34:35;26.55;;;15.20;;
23232;SDS011;11785;49.500;8.288;2024-03-08T10:37:03;26.27;;;14.32;;
23232;SDS011;11785;49.500;8.288;2024-03-08T10:39:34;26.90;;;15.60;;
23232;SDS011;11785;49.500;8.288;2024-03-08T10:42:02;23.80;;;15.00;;
23232;SDS011;11785;49.500;8.288;2024-03-08T10:49:37;26.52;;;15.48;;
23232;SDS011;11785;49.500;8.288;2024-03-08T10:52:04;23.83;;;14.85;;
23232;SDS011;11785;49.500;8.288;2024-03-08T10:54:33;25.27;;;14.90;;
23232;SDS011;11785;49.500;8.288;2024-03-08T10:56:59;26.83;;;15.80;;
23232;SDS011;11785;49.500;8.288;2024-03-08T10:59:29;30.25;;;15.63;;
23232;SDS011;11785;49.500;8.288;2024-03-08T11:01:55;22.52;;;14.23;;
23232;SDS011;11785;49.500;8.288;2024-03-08T11:04:20;24.58;;;15.07;;
23232;SDS011;11785;49.500;8.288;2024-03-08T11:06:49;23.60;;;14.13;;
23232;SDS011;11785;49.500;8.288;2024-03-08T11:09:30;24.77;;;15.05;;
23232;SDS011;11785;49.500;8.288;2024-03-08T11:14:51;21.73;;;13.93;;
23232;SDS011;11785;49.500;8.288;2024-03-08T11:20:14;20.42;;;14.05;;
23232;SDS011;11785;49.500;8.288;2024-03-08T11:22:52;21.90;;;14.30;;
23232;SDS011;11785;49.500;8.288;2024-03-08T11:28:09;24.20;;;14.15;;
23232;SDS011;11785;49.500;8.288;2024-03-08T11:30:41;26.40;;;14.27;;
23232;SDS011;11785;49.500;8.288;2024-03-08T11:33:10;23.65;;;15.35;;
23232;SDS011;11785;49.500;8.288;2024-03-08T11:35:37;21.88;;;13.90;;
23232;SDS011;11785;49.500;8.288;2024-03-08T11:38:04;20.70;;;13.80;;
23232;SDS011;11785;49.500;8.288;2024-03-08T11:40:29;22.52;;;14.27;;
23232;SDS011;11785;49.500;8.288;2024-03-08T11:42:58;27.58;;;15.68;;
23232;SDS011;11785;49.500;8.288;2024-03-08T11:45:24;22.48;;;15.05;;
23232;SDS011;11785;49.500;8.288;2024-03-08T11:47:50;21.30;;;14.25;;
23232;SDS011;11785;49.500;8.288;2024-03-08T11:50:15;22.52;;;14.48;;
23232;SDS011;11785;49.500;8.288;2024-03-08T11:52:43;25.55;;;15.15;;
23232;SDS011;11785;49.500;8.288;2024-03-08T11:55:09;24.58;;;14.43;;
23232;SDS011;11785;49.500;8.288;2024-03-08T11:57:37;25.10;;;15.65;;
23232;SDS011;11785;49.500;8.288;2024-03-08T12:00:03;23.42;;;15.25;;
23232;SDS011;11785;49.500;8.288;2024-03-08T12:02:35;26.85;;;14.43;;
23232;SDS011;11785;49.500;8.288;2024-03-08T12:05:04;23.20;;;14.77;;
23232;SDS011;11785;49.500;8.288;2024-03-08T12:07:41;21.23;;;14.35;;
23232;SDS011;11785;49.500;8.288;2024-03-08T12:10:20;21.80;;;13.73;;
23232;SDS011;11785;49.500;8.288;2024-03-08T12:12:47;22.92;;;14.65;;
23232;SDS011;11785;49.500;8.288;2024-03-08T12:15:15;20.90;;;14.07;;
23232;SDS011;11785;49.500;8.288;2024-03-08T12:17:42;24.83;;;14.32;;
23232;SDS011;11785;49.500;8.288;2024-03-08T12:20:20;20.17;;;13.57;;
23232;SDS011;11785;49.500;8.288;2024-03-08T12:22:54;24.27;;;14.25;;
23232;SDS011;11785;49.500;8.288;2024-03-08T12:25:27;20.80;;;13.18;;
23232;SDS011;11785;49.500;8.288;2024-03-08T12:28:08;19.02;;;12.80;;
23232;SDS011;11785;49.500;8.288;2024-03-08T12:30:48;22.02;;;13.15;;
23232;SDS011;11785;49.500;8.288;2024-03-08T12:33:16;18.05;;;12.70;;
23232;SDS011;11785;49.500;8.288;2024-03-08T12:35:49;20.08;;;13.05;;
23232;SDS011;11785;49.500;8.288;2024-03-08T12:38:18;17.67;;;12.35;;
23232;SDS011;11785;49.500;8.288;2024-03-08T12:40:49;20.38;;;14.05;;
23232;SDS011;11785;49.500;8.288;2024-03-08T12:43:14;17.17;;;12.25;;
23232;SDS011;11785;49.500;8.288;2024-03-08T12:45:40;19.92;;;12.65;;
23232;SDS011;11785;49.500;8.288;2024-03-08T12:48:12;19.42;;;13.18;;
23232;SDS011;11785;49.500;8.288;2024-03-08T12:50:40;20.15;;;14.20;;
23232;SDS011;11785;49.500;8.288;2024-03-08T12:53:08;18.17;;;13.02;;
23232;SDS011;11785;49.500;8.288;2024-03-08T12:55:33;19.98;;;13.07;;
23232;SDS011;11785;49.500;8.288;2024-03-08T12:57:59;20.25;;;13.45;;
23232;SDS011;11785;49.500;8.288;2024-03-08T13:00:25;18.65;;;12.65;;
23232;SDS011;11785;49.500;8.288;2024-03-08T13:02:53;17.52;;;12.48;;
23232;SDS011;11785;49.500;8.288;2024-03-08T13:05:18;18.70;;;13.38;;
23232;SDS011;11785;49.500;8.288;2024-03-08T13:07:45;18.23;;;13.18;;
23232;SDS011;11785;49.500;8.288;2024-03-08T13:10:14;21.10;;;13.35;;
23232;SDS011;11785;49.500;8.288;2024-03-08T13:12:43;19.15;;;13.02;;
23232;SDS011;11785;49.500;8.288;2024-03-08T13:15:09;18.15;;;13.30;;
23232;SDS011;11785;49.500;8.288;2024-03-08T13:17:40;18.02;;;13.23;;
23232;SDS011;11785;49.500;8.288;2024-03-08T13:20:07;18.17;;;12.85;;
23232;SDS011;11785;49.500;8.288;2024-03-08T13:22:34;17.70;;;13.93;;
23232;SDS011;11785;49.500;8.288;2024-03-08T13:25:00;18.88;;;13.82;;
23232;SDS011;11785;49.500;8.288;2024-03-08T13:27:29;20.73;;;14.13;;
23232;SDS011;11785;49.500;8.288;2024-03-08T13:29:55;18.25;;;12.77;;
23232;SDS011;11785;49.500;8.288;2024-03-08T13:32:20;18.45;;;14.05;;
23232;SDS011;11785;49.500;8.288;2024-03-08T13:34:47;18.55;;;12.98;;
23232;SDS011;11785;49.500;8.288;2024-03-08T13:37:13;22.70;;;15.43;;
23232;SDS011;11785;49.500;8.288;2024-03-08T13:39:41;20.83;;;14.90;;
23232;SDS011;11785;49.500;8.288;2024-03-08T13:42:17;17.13;;;13.63;;
23232;SDS011;11785;49.500;8.288;2024-03-08T13:44:44;20.33;;;14.18;;
23232;SDS011;11785;49.500;8.288;2024-03-08T13:47:16;19.00;;;13.82;;
23232;SDS011;11785;49.500;8.288;2024-03-08T13:49:42;20.98;;;13.68;;
23232;SDS011;11785;49.500;8.288;2024-03-08T13:52:11;18.52;;;13.70;;
23232;SDS011;11785;49.500;8.288;2024-03-08T13:54:41;18.60;;;13.23;;
23232;SDS011;11785;49.500;8.288;2024-03-08T13:57:07;19.73;;;13.85;;
23232;SDS011;11785;49.500;8.288;2024-03-08T13:59:33;19.92;;;14.35;;
23232;SDS011;11785;49.500;8.288;2024-03-08T14:02:00;19.13;;;14.13;;
23232;SDS011;11785;49.500;8.288;2024-03-08T14:04:27;18.38;;;13.27;;
23232;SDS011;11785;49.500;8.288;2024-03-08T14:06:53;19.85;;;14.25;;
23232;SDS011;11785;49.500;8.288;2024-03-08T14:09:22;19.27;;;13.80;;
23232;SDS011;11785;49.500;8.288;2024-03-08T14:11:49;19.90;;;14.32;;
23232;SDS011;11785;49.500;8.288;2024-03-08T14:14:21;18.02;;;13.07;;
23232;SDS011;11785;49.500;8.288;2024-03-08T14:16:48;19.98;;;13.50;;
23232;SDS011;11785;49.500;8.288;2024-03-08T14:19:17;18.27;;;13.02;;
23232;SDS011;11785;49.500;8.288;2024-03-08T14:21:43;16.90;;;13.02;;
23232;SDS011;11785;49.500;8.288;2024-03-08T14:24:09;17.90;;;13.38;;
23232;SDS011;11785;49.500;8.288;2024-03-08T14:26:35;19.60;;;12.93;;
23232;SDS011;11785;49.500;8.288;2024-03-08T14:29:03;18.48;;;13.27;;
23232;SDS011;11785;49.500;8.288;2024-03-08T14:31:30;21.17;;;15.30;;
23232;SDS011;11785;49.500;8.288;2024-03-08T14:33:56;22.63;;;14.88;;